Salt Pond, Missouri
Current Conditions -  °F | °C
As of 7:55 PM on Sunday 23 Nov 2014 (Local Time) from KMHL Reporting Station
Moderate Fog Moderate Fog  
Wind Chill: 55°   Ceiling: 300
Heat Index: 55°   Visibility: 0.25mi
Dew Point: 55°   Wind: 3mph
Humidity: 100%   Direction: 330°NNW
Pressure: 29.29"   Gusts: NA
Location:  38.9707°N, 93.4332°W
Report Text: KMHL 240155Z AUTO 33003KT 1/4SM FG OVC003 13/13 A2929 RMK AO2
Loading
Personal Weather Stations






























Interactive Weather Map New forecast layout! Learn more

10-Day Weather Forecast

Advertisements
Track Severe Weather on mobile